Time;durP1;ratioP1;P1;durP2;ratioP2;P2;SDS_P1;SDS_P2;PMS_P1;PMS_P2;Temp;Humidity;BMP_temperature;BMP_pressure;BME280_temperature;BME280_humidity;BME280_pressure;Samples;Min_cycle;Max_cycle;Signal;HPM_P1;HPM_P2
2022/08/14 00:00:38;;;;;;;2.10;1.90;;;24.30;40.00;;;;;;4965330;28;20037;-80
2022/08/14 00:03:04;;;;;;;2.35;2.00;;;24.30;40.80;;;;;;4950884;28;20023;-80
2022/08/14 00:05:30;;;;;;;2.80;1.60;;;24.30;40.20;;;;;;4965587;28;20110;-80
2022/08/14 00:07:56;;;;;;;2.60;1.80;;;24.30;40.30;;;;;;4982218;28;20041;-80
2022/08/14 00:10:22;;;;;;;1.98;1.80;;;24.10;40.40;;;;;;4959224;28;20015;-79
2022/08/14 00:12:51;;;;;;;2.83;1.98;;;24.10;40.50;;;;;;4972441;28;20038;-80
2022/08/14 00:15:22;;;;;;;2.13;1.90;;;24.00;40.90;;;;;;4947565;28;20029;-80
2022/08/14 00:17:48;;;;;;;2.42;1.80;;;24.00;41.00;;;;;;4958352;28;20098;-80
2022/08/14 00:20:17;;;;;;;2.70;1.80;;;23.90;40.90;;;;;;4958831;28;20062;-79
2022/08/14 00:22:43;;;;;;;2.75;1.90;;;23.90;41.30;;;;;;4964824;28;20026;-79
2022/08/14 00:25:09;;;;;;;2.20;2.00;;;23.80;41.00;;;;;;4951844;28;20027;-80
2022/08/14 00:27:36;;;;;;;3.45;1.90;;;23.80;41.90;;;;;;4962751;28;20038;-80
2022/08/14 00:30:05;;;;;;;2.50;1.73;;;23.80;41.40;;;;;;4929390;28;20165;-80
2022/08/14 00:32:31;;;;;;;2.00;1.73;;;23.70;41.70;;;;;;4957200;28;20062;-80
2022/08/14 00:35:00;;;;;;;2.10;1.90;;;23.70;41.50;;;;;;4968998;28;20770;-79
2022/08/14 00:37:27;;;;;;;2.35;1.80;;;23.60;41.70;;;;;;4965773;28;20480;-80
2022/08/14 00:39:53;;;;;;;2.33;1.80;;;23.60;41.90;;;;;;4954494;28;20606;-79
2022/08/14 00:42:20;;;;;;;2.85;1.90;;;23.50;41.90;;;;;;4950178;28;20042;-80
2022/08/14 00:44:46;;;;;;;2.23;1.83;;;23.50;42.10;;;;;;4926589;28;21604;-79
2022/08/14 00:47:14;;;;;;;2.40;1.80;;;23.40;42.10;;;;;;4964937;28;20109;-80
2022/08/14 00:49:39;;;;;;;3.28;1.90;;;23.40;42.40;;;;;;4957896;28;20576;-80
2022/08/14 00:52:05;;;;;;;2.15;1.88;;;23.30;42.40;;;;;;4940076;28;20077;-80
2022/08/14 00:54:32;;;;;;;2.73;2.00;;;23.30;42.60;;;;;;4957313;28;20552;-80
2022/08/14 00:56:58;;;;;;;2.60;1.92;;;23.20;42.70;;;;;;4965859;28;20034;-80
2022/08/14 00:59:27;;;;;;;1.98;1.77;;;23.10;42.70;;;;;;4974685;28;20035;-81
2022/08/14 01:01:58;;;;;;;2.53;2.05;;;23.10;43.40;;;;;;4946021;28;20221;-78
2022/08/14 01:04:25;;;;;;;3.27;1.90;;;23.00;43.70;;;;;;4952942;28;20026;-78
2022/08/14 01:06:51;;;;;;;2.60;1.90;;;23.00;43.20;;;;;;4941978;28;20098;-78
2022/08/14 01:09:23;;;;;;;2.65;2.05;;;22.90;43.40;;;;;;4932349;28;20342;-78
2022/08/14 01:11:50;;;;;;;3.60;2.00;;;22.80;43.90;;;;;;4962452;28;20082;-78
2022/08/14 01:14:16;;;;;;;3.13;1.85;;;22.80;43.60;;;;;;4962051;28;20015;-78
2022/08/14 01:16:43;;;;;;;3.05;2.00;;;22.70;43.60;;;;;;4928619;28;20023;-78
2022/08/14 01:21:53;;;;;;;3.03;2.00;;;22.60;43.90;;;;;;4961100;28;20380;-78
2022/08/14 01:24:20;;;;;;;4.13;2.00;;;22.50;44.00;;;;;;4919840;28;20039;-78
2022/08/14 01:26:46;;;;;;;2.33;1.90;;;22.40;44.00;;;;;;4959042;28;20055;-78
2022/08/14 01:29:12;;;;;;;2.90;2.17;;;22.40;44.20;;;;;;4956012;28;20037;-78
2022/08/14 01:32:03;;;;;;;2.42;1.92;;;22.30;44.30;;;;;;4944316;28;20032;-78
2022/08/14 01:34:25;;;;;;;2.17;1.83;;;22.30;44.40;;;;;;4953022;28;20068;-78
2022/08/14 01:36:52;;;;;;;2.20;2.00;;;22.20;44.30;;;;;;4964764;28;20054;-78
2022/08/14 01:39:19;;;;;;;2.78;1.92;;;22.20;44.50;;;;;;4941902;28;20011;-77
2022/08/14 01:41:54;;;;;;;3.88;1.90;;;22.10;44.60;;;;;;4946662;28;20038;-76
2022/08/14 01:44:21;;;;;;;3.35;1.92;;;22.10;44.90;;;;;;4946080;28;20023;-77
2022/08/14 01:46:46;;;;;;;2.50;1.87;;;22.00;44.70;;;;;;4944496;28;20053;-76
2022/08/14 01:49:16;;;;;;;4.15;2.10;;;22.00;44.80;;;;;;4953151;28;20022;-77
2022/08/14 01:51:43;;;;;;;2.22;1.75;;;22.00;45.30;;;;;;4977233;28;20023;-77
2022/08/14 01:54:12;;;;;;;2.50;2.00;;;21.90;45.10;;;;;;4960032;28;20019;-76
2022/08/14 01:56:39;;;;;;;2.30;1.90;;;21.90;45.40;;;;;;4939836;28;20126;-77
2022/08/14 01:59:14;;;;;;;2.30;2.10;;;21.80;45.40;;;;;;4943259;28;20027;-76
2022/08/14 02:01:40;;;;;;;2.30;1.80;;;21.80;46.80;;;;;;4945118;28;20597;-76
2022/08/14 02:04:06;;;;;;;2.70;1.95;;;21.70;45.60;;;;;;4928029;28;20174;-77
2022/08/14 02:06:33;;;;;;;3.47;2.00;;;21.70;45.70;;;;;;4977753;28;20022;-77
2022/08/14 02:09:01;;;;;;;3.33;2.03;;;21.60;45.80;;;;;;4936966;28;20031;-76
2022/08/14 02:11:27;;;;;;;3.03;2.08;;;21.60;46.00;;;;;;4964130;28;20106;-77
2022/08/14 02:14:08;;;;;;;2.23;2.03;;;21.60;46.10;;;;;;4956882;28;20547;-77
2022/08/14 02:16:39;;;;;;;3.28;2.15;;;21.50;47.70;;;;;;4963288;28;20596;-77
2022/08/14 02:19:07;;;;;;;2.78;2.28;;;21.50;46.60;;;;;;4955484;28;20098;-77
2022/08/14 02:21:35;;;;;;;2.83;2.10;;;21.40;46.40;;;;;;4967539;28;20065;-77
2022/08/14 02:24:03;;;;;;;2.60;2.03;;;21.40;46.40;;;;;;4945167;28;20026;-76
2022/08/14 02:26:35;;;;;;;2.27;2.07;;;21.40;46.70;;;;;;4964614;28;20437;-76
2022/08/14 02:29:08;;;;;;;3.05;2.15;;;21.40;47.20;;;;;;4950903;28;20038;-77
2022/08/14 02:31:37;;;;;;;2.90;2.20;;;21.30;47.50;;;;;;4962158;28;20069;-77
2022/08/14 02:34:06;;;;;;;2.88;2.20;;;21.20;47.00;;;;;;4941642;28;20629;-77
2022/08/14 02:36:32;;;;;;;2.55;2.10;;;21.20;47.10;;;;;;4955522;28;20580;-77
2022/08/14 02:38:58;;;;;;;3.33;2.27;;;21.20;47.00;;;;;;4950629;28;20534;-76
2022/08/14 02:41:24;;;;;;;3.38;2.00;;;21.10;47.10;;;;;;4962939;28;20027;-76
2022/08/14 02:43:50;;;;;;;2.60;2.10;;;21.10;47.20;;;;;;4941523;28;20099;-76
2022/08/14 02:46:16;;;;;;;4.93;2.10;;;21.00;47.30;;;;;;4941821;28;20028;-77
2022/08/14 02:48:43;;;;;;;3.95;2.15;;;21.00;47.50;;;;;;4946819;28;20029;-76
2022/08/14 02:51:11;;;;;;;2.38;1.95;;;21.00;47.70;;;;;;4936670;28;21121;-76
2022/08/14 02:53:44;;;;;;;2.83;2.05;;;20.90;47.90;;;;;;4962904;28;20023;-76
2022/08/14 02:56:14;;;;;;;3.47;2.30;;;20.90;48.50;;;;;;4934320;28;20045;-77
2022/08/14 02:58:46;;;;;;;3.77;1.93;;;20.80;48.00;;;;;;4963388;28;20114;-76
2022/08/14 03:01:14;;;;;;;2.80;2.22;;;20.80;48.20;;;;;;4954533;28;20027;-77
2022/08/14 03:03:41;;;;;;;3.08;2.28;;;20.70;48.10;;;;;;4938489;28;20022;-76
2022/08/14 03:06:11;;;;;;;2.72;2.35;;;20.70;48.30;;;;;;4981316;28;20019;-77
2022/08/14 03:08:37;;;;;;;3.80;2.50;;;20.70;49.80;;;;;;4951830;28;20031;-76
2022/08/14 03:11:08;;;;;;;2.90;2.20;;;20.60;48.60;;;;;;4961418;28;20086;-77
2022/08/14 03:13:39;;;;;;;3.15;2.42;;;20.60;48.90;;;;;;4937853;28;20031;-76
2022/08/14 03:16:07;;;;;;;2.78;2.42;;;20.50;49.00;;;;;;4926592;28;20675;-77
2022/08/14 03:18:33;;;;;;;2.75;2.40;;;20.50;49.10;;;;;;4961239;28;20038;-76
2022/08/14 03:21:03;;;;;;;3.83;2.60;;;20.50;49.70;;;;;;4951980;28;20127;-77
2022/08/14 03:23:32;;;;;;;3.22;2.70;;;20.40;49.20;;;;;;4937831;28;20030;-77
2022/08/14 03:25:58;;;;;;;2.60;2.30;;;20.40;49.10;;;;;;4962204;28;20031;-76
2022/08/14 03:28:25;;;;;;;2.77;2.20;;;20.40;49.20;;;;;;4963776;28;20037;-76
2022/08/14 03:30:51;;;;;;;3.33;2.33;;;20.30;49.20;;;;;;4953151;28;20122;-76
2022/08/14 03:33:18;;;;;;;3.85;2.40;;;20.30;49.30;;;;;;4958593;28;20034;-77
2022/08/14 03:35:44;;;;;;;3.15;2.58;;;20.20;49.40;;;;;;4946271;28;20034;-76
2022/08/14 03:38:11;;;;;;;3.23;2.50;;;20.20;49.40;;;;;;4933158;28;20019;-77
2022/08/14 03:40:40;;;;;;;3.90;2.65;;;20.20;49.60;;;;;;4943260;28;20117;-76
2022/08/14 03:43:07;;;;;;;2.90;2.45;;;20.20;50.10;;;;;;4960359;28;20031;-76
2022/08/14 03:45:34;;;;;;;2.77;2.47;;;20.10;49.70;;;;;;4974136;28;20023;-77
2022/08/14 03:48:18;;;;;;;3.20;2.50;;;20.10;49.90;;;;;;4952678;28;20037;-76
2022/08/14 03:50:50;;;;;;;3.42;2.50;;;20.10;51.00;;;;;;4947133;28;20038;-76
2022/08/14 03:53:18;;;;;;;3.67;2.60;;;20.00;50.70;;;;;;4909704;28;20043;-76
2022/08/14 03:55:46;;;;;;;4.18;2.63;;;20.00;50.10;;;;;;4963913;28;20026;-77
2022/08/14 03:58:12;;;;;;;3.47;2.40;;;20.00;50.20;;;;;;4945939;28;20051;-77
2022/08/14 04:00:39;;;;;;;3.75;2.55;;;20.00;51.00;;;;;;4960379;28;20030;-76
2022/08/14 04:03:07;;;;;;;3.25;2.53;;;19.90;50.40;;;;;;4953868;28;20091;-77
2022/08/14 04:05:36;;;;;;;3.28;2.65;;;19.90;50.50;;;;;;4943543;28;20319;-77
2022/08/14 04:08:02;;;;;;;3.30;2.58;;;19.90;50.60;;;;;;4959514;28;20023;-76
2022/08/14 04:10:28;;;;;;;3.63;2.80;;;19.80;50.60;;;;;;4958597;28;20143;-76
2022/08/14 04:12:58;;;;;;;2.92;2.58;;;19.80;50.70;;;;;;4963222;28;20508;-77
2022/08/14 04:15:25;;;;;;;4.00;2.70;;;19.80;50.70;;;;;;4962257;28;20022;-77
2022/08/14 04:17:52;;;;;;;4.70;2.57;;;19.80;50.80;;;;;;4950779;28;20296;-77
2022/08/14 04:20:19;;;;;;;2.90;2.30;;;19.80;51.10;;;;;;4950757;28;20110;-77
2022/08/14 04:22:45;;;;;;;2.60;2.30;;;19.80;51.10;;;;;;4971350;28;20256;-78
2022/08/14 04:25:11;;;;;;;3.65;2.50;;;19.70;51.10;;;;;;4947768;28;20025;-78
2022/08/14 04:27:37;;;;;;;3.23;2.40;;;19.70;51.20;;;;;;4946715;28;20077;-78
2022/08/14 04:30:04;;;;;;;4.15;2.60;;;19.70;51.20;;;;;;4966627;28;20671;-76
2022/08/14 04:32:32;;;;;;;3.92;2.60;;;19.70;51.40;;;;;;4952192;28;20730;-77
2022/08/14 04:35:02;;;;;;;3.42;2.50;;;19.60;51.40;;;;;;4943041;28;20014;-77
2022/08/14 04:45:43;;;;;;;2.70;2.40;;;19.50;51.70;;;;;;4956002;28;20054;-77
2022/08/14 04:48:12;;;;;;;2.90;2.55;;;19.60;51.80;;;;;;4948513;28;20054;-76
2022/08/14 04:50:43;;;;;;;3.28;2.65;;;19.60;52.20;;;;;;4925507;28;20381;-76
2022/08/14 04:53:11;;;;;;;3.57;2.43;;;19.50;52.40;;;;;;4961101;28;20057;-77
2022/08/14 04:55:38;;;;;;;2.65;2.20;;;19.50;52.10;;;;;;4969613;28;20039;-79
2022/08/14 04:58:04;;;;;;;3.13;2.47;;;19.50;52.20;;;;;;4966127;28;20779;-77
2022/08/14 05:00:30;;;;;;;5.65;2.67;;;19.50;52.10;;;;;;4961455;28;20026;-76
2022/08/14 05:02:56;;;;;;;4.45;2.60;;;19.50;52.50;;;;;;4952794;28;20483;-77
2022/08/14 05:05:23;;;;;;;3.93;2.73;;;19.50;52.50;;;;;;4913935;28;20031;-76
2022/08/14 05:07:51;;;;;;;2.67;2.38;;;19.50;52.70;;;;;;4943358;28;20642;-77
2022/08/14 05:10:22;;;;;;;4.75;2.75;;;19.50;52.80;;;;;;4944054;28;20031;-77
2022/08/14 05:12:50;;;;;;;3.83;2.37;;;19.40;52.80;;;;;;4951525;28;20062;-77
2022/08/14 05:15:18;;;;;;;3.53;2.65;;;19.50;52.90;;;;;;4963210;28;20031;-78
2022/08/14 05:17:43;;;;;;;3.63;2.50;;;19.50;52.90;;;;;;4927896;28;20089;-78
2022/08/14 05:20:11;;;;;;;3.33;2.50;;;19.50;53.00;;;;;;4953336;28;20026;-77
2022/08/14 05:22:37;;;;;;;2.93;2.50;;;19.50;53.10;;;;;;4943431;28;20027;-77
2022/08/14 05:25:04;;;;;;;3.50;2.58;;;19.60;53.10;;;;;;4950698;28;20082;-76
2022/08/14 05:27:29;;;;;;;2.70;2.40;;;19.60;53.30;;;;;;4925203;28;20070;-76
2022/08/14 05:29:55;;;;;;;2.83;2.40;;;19.60;53.20;;;;;;4962342;28;20114;-76
2022/08/14 05:32:23;;;;;;;3.33;2.57;;;19.60;53.20;;;;;;4940498;28;20290;-76
2022/08/14 05:34:49;;;;;;;3.13;2.35;;;19.70;53.40;;;;;;4964657;28;20069;-76
2022/08/14 05:37:15;;;;;;;4.18;2.50;;;19.70;53.30;;;;;;4940537;28;20114;-76
2022/08/14 05:39:42;;;;;;;2.90;2.47;;;19.70;54.00;;;;;;4960699;28;20035;-76
2022/08/14 05:42:09;;;;;;;3.10;2.50;;;19.80;53.40;;;;;;4949897;28;20054;-76
2022/08/14 05:44:35;;;;;;;3.45;2.42;;;19.80;53.50;;;;;;4957689;28;20042;-76
2022/08/14 05:47:00;;;;;;;3.97;2.50;;;19.80;53.60;;;;;;4948455;28;20488;-76
2022/08/14 05:49:27;;;;;;;2.80;2.30;;;19.90;53.70;;;;;;4948165;28;20023;-76
2022/08/14 05:51:52;;;;;;;3.30;2.40;;;19.90;53.70;;;;;;4944413;28;20019;-76
2022/08/14 05:54:18;;;;;;;2.88;2.40;;;20.00;53.80;;;;;;4934528;28;20034;-76
2022/08/14 05:56:45;;;;;;;2.80;2.50;;;20.00;53.90;;;;;;4944534;28;20559;-77
2022/08/14 05:59:11;;;;;;;3.78;2.70;;;20.00;54.00;;;;;;4953745;28;20031;-77
2022/08/14 06:01:36;;;;;;;4.32;2.72;;;20.10;54.00;;;;;;4960853;28;20109;-77
2022/08/14 06:04:03;;;;;;;3.27;2.30;;;20.10;54.10;;;;;;4946706;28;20054;-77
2022/08/14 06:06:29;;;;;;;2.80;2.50;;;20.20;54.20;;;;;;4943016;28;20026;-77
2022/08/14 06:08:55;;;;;;;2.90;2.40;;;20.30;54.10;;;;;;4922339;28;20034;-77
2022/08/14 06:11:21;;;;;;;2.80;2.38;;;20.30;54.10;;;;;;4942398;28;20097;-77
2022/08/14 06:13:47;;;;;;;2.80;2.30;;;20.40;54.10;;;;;;4950123;28;20090;-77
2022/08/14 06:16:16;;;;;;;2.50;2.30;;;20.50;54.10;;;;;;4955744;28;20030;-77
2022/08/14 06:18:44;;;;;;;2.50;2.17;;;20.50;54.40;;;;;;4956543;28;20035;-77
2022/08/14 06:21:09;;;;;;;2.95;2.40;;;20.60;54.10;;;;;;4939562;28;20488;-77
2022/08/14 06:23:35;;;;;;;2.97;2.20;;;20.70;54.00;;;;;;4930351;28;20183;-77
2022/08/14 06:26:01;;;;;;;4.22;2.58;;;20.80;54.10;;;;;;4917712;28;20102;-77
2022/08/14 06:28:27;;;;;;;3.00;2.33;;;20.80;54.00;;;;;;4951272;28;20025;-77
2022/08/14 06:30:52;;;;;;;2.67;2.40;;;20.90;54.00;;;;;;4964676;28;20033;-77
2022/08/14 06:33:19;;;;;;;2.85;2.45;;;21.00;54.00;;;;;;4964066;28;20039;-77
2022/08/14 06:35:47;;;;;;;2.50;2.10;;;21.10;54.30;;;;;;4939751;28;20130;-77
2022/08/14 06:38:19;;;;;;;2.65;2.17;;;21.20;54.30;;;;;;4942655;28;20062;-77
2022/08/14 06:40:45;;;;;;;3.25;2.20;;;21.30;54.40;;;;;;4940914;28;20025;-77
2022/08/14 06:43:12;;;;;;;2.45;2.20;;;21.40;54.10;;;;;;4945521;28;20124;-78
2022/08/14 06:45:40;;;;;;;2.30;2.03;;;21.50;54.10;;;;;;4926333;28;20047;-78
2022/08/14 06:48:22;;;;;;;2.40;2.20;;;21.60;54.10;;;;;;4951879;28;20073;-78
2022/08/14 06:50:49;;;;;;;2.70;2.20;;;21.70;54.50;;;;;;4941859;28;20034;-77
2022/08/14 06:53:16;;;;;;;3.00;2.13;;;21.90;54.00;;;;;;4933223;28;20126;-77
2022/08/14 06:55:43;;;;;;;2.80;2.20;;;22.00;54.00;;;;;;4939875;28;20121;-77
2022/08/14 06:58:14;;;;;;;3.03;2.40;;;22.10;54.00;;;;;;4954084;28;20039;-77
2022/08/14 07:05:44;;;;;;;3.70;2.10;;;22.20;53.90;;;;;;4959808;28;20022;-77
2022/08/14 07:06:13;;;;;;;3.28;2.05;;;22.50;53.80;;;;;;4947651;28;20058;-77
2022/08/14 07:08:39;;;;;;;3.00;1.85;;;22.70;53.70;;;;;;4944047;28;20027;-77
2022/08/14 07:11:05;;;;;;;2.20;2.00;;;22.80;53.40;;;;;;4949608;28;20065;-77
2022/08/14 07:13:31;;;;;;;4.03;2.20;;;23.00;53.50;;;;;;4935407;28;20046;-77
2022/08/14 07:15:59;;;;;;;2.60;2.40;;;23.10;53.40;;;;;;4951529;28;20130;-77
2022/08/14 07:18:30;;;;;;;2.50;2.13;;;23.30;53.40;;;;;;4952233;28;20050;-77
2022/08/14 07:20:58;;;;;;;2.58;2.20;;;23.50;53.40;;;;;;4955441;28;20035;-77
2022/08/14 07:23:24;;;;;;;2.47;2.13;;;23.60;53.20;;;;;;4935076;28;20574;-77
2022/08/14 07:25:53;;;;;;;2.75;2.10;;;23.80;53.30;;;;;;4941782;28;20030;-77
2022/08/14 07:28:31;;;;;;;2.65;2.33;;;23.90;53.10;;;;;;4935637;28;20027;-77
2022/08/14 07:30:58;;;;;;;2.95;2.33;;;24.20;53.10;;;;;;4956603;28;20138;-77
2022/08/14 07:33:27;;;;;;;2.60;2.40;;;24.40;52.80;;;;;;4960106;28;20034;-77
2022/08/14 07:35:54;;;;;;;2.53;2.20;;;24.60;52.50;;;;;;4948022;28;20027;-77
2022/08/14 07:38:22;;;;;;;2.55;2.35;;;24.80;52.20;;;;;;4936648;28;20029;-77
2022/08/14 07:40:50;;;;;;;2.63;2.10;;;25.00;51.90;;;;;;4935062;28;20270;-77
2022/08/14 07:43:16;;;;;;;3.70;2.47;;;25.20;51.40;;;;;;4937147;28;20023;-77
2022/08/14 07:45:43;;;;;;;2.40;2.20;;;25.30;51.10;;;;;;4946562;28;20851;-77
2022/08/14 07:48:09;;;;;;;2.80;2.40;;;25.50;50.90;;;;;;4945929;28;20015;-77
2022/08/14 07:50:36;;;;;;;2.60;2.20;;;25.60;50.60;;;;;;4966394;28;20668;-77
2022/08/14 07:53:02;;;;;;;4.38;2.50;;;25.70;50.30;;;;;;4957307;28;20487;-77
2022/08/14 07:55:28;;;;;;;4.00;2.67;;;25.90;50.30;;;;;;4931390;28;20917;-77
2022/08/14 07:57:55;;;;;;;2.70;2.47;;;26.10;50.30;;;;;;4923017;28;20031;-76
2022/08/14 08:00:23;;;;;;;5.03;2.63;;;26.30;50.30;;;;;;4963319;28;20738;-77
2022/08/14 08:02:51;;;;;;;2.63;2.42;;;26.50;50.20;;;;;;4941175;28;20041;-77
2022/08/14 08:05:18;;;;;;;2.60;2.25;;;26.80;50.20;;;;;;4955213;28;20046;-77
2022/08/14 08:07:46;;;;;;;3.03;2.80;;;27.10;50.30;;;;;;4962035;28;20039;-77
2022/08/14 08:10:32;;;;;;;2.60;2.40;;;27.50;50.30;;;;;;4949997;28;20051;-77
2022/08/14 08:13:04;;;;;;;2.30;2.10;;;27.80;50.40;;;;;;4941561;28;20031;-77
2022/08/14 08:15:32;;;;;;;3.65;2.30;;;28.40;50.30;;;;;;4952918;28;20034;-77
2022/08/14 08:18:03;;;;;;;2.88;2.40;;;28.80;50.40;;;;;;4946951;28;20027;-77
2022/08/14 08:20:32;;;;;;;2.50;2.30;;;29.30;50.00;;;;;;4938836;28;20584;-78
2022/08/14 08:22:58;;;;;;;2.65;2.35;;;29.80;49.30;;;;;;4941150;28;20507;-77
2022/08/14 08:25:26;;;;;;;3.30;2.07;;;30.30;48.60;;;;;;4938071;28;20027;-77
2022/08/14 08:27:58;;;;;;;2.53;2.30;;;30.70;48.00;;;;;;4956188;28;20039;-77
2022/08/14 08:30:27;;;;;;;2.53;2.33;;;31.10;47.00;;;;;;4943511;28;20066;-77
2022/08/14 08:32:56;;;;;;;2.40;2.20;;;31.50;46.80;;;;;;4968237;28;20042;-78
2022/08/14 08:35:25;;;;;;;2.38;2.05;;;31.80;46.20;;;;;;4928187;28;20073;-77
2022/08/14 08:37:54;;;;;;;2.30;2.10;;;32.10;45.30;;;;;;4956026;28;20035;-78
2022/08/14 08:40:24;;;;;;;2.17;1.98;;;32.40;44.70;;;;;;4949104;28;20030;-78
2022/08/14 08:42:51;;;;;;;2.95;2.03;;;32.70;43.60;;;;;;4933669;28;20027;-77
2022/08/14 08:45:17;;;;;;;2.30;2.10;;;32.90;43.30;;;;;;4935472;28;20088;-77
2022/08/14 08:47:44;;;;;;;2.58;2.10;;;33.10;42.70;;;;;;4954446;28;20034;-78
2022/08/14 08:50:24;;;;;;;2.30;2.03;;;33.20;42.30;;;;;;4943500;28;20027;-78
2022/08/14 08:52:52;;;;;;;2.10;1.90;;;33.30;40.20;;;;;;4947562;28;20109;-78
2022/08/14 08:55:32;;;;;;;2.40;2.20;;;33.40;40.90;;;;;;4955173;28;20030;-78
2022/08/14 08:58:03;;;;;;;2.00;1.90;;;33.50;39.70;;;;;;4924226;28;20033;-78
2022/08/14 09:00:32;;;;;;;2.05;1.95;;;33.60;40.30;;;;;;4954691;28;20074;-78
2022/08/14 09:03:08;;;;;;;2.57;2.20;;;33.60;40.20;;;;;;4935588;28;20050;-78
2022/08/14 09:05:36;;;;;;;2.20;2.08;;;33.60;39.60;;;;;;4959681;28;20030;-78
2022/08/14 09:08:10;;;;;;;2.40;2.20;;;33.60;39.50;;;;;;4960019;28;20034;-78
2022/08/14 09:10:36;;;;;;;2.42;2.22;;;33.60;38.70;;;;;;4969898;28;20078;-78
2022/08/14 09:13:03;;;;;;;2.53;2.13;;;33.70;40.60;;;;;;4937353;28;20038;-78
2022/08/14 09:15:29;;;;;;;2.47;2.28;;;33.90;40.90;;;;;;4955743;28;20030;-78
2022/08/14 09:17:56;;;;;;;2.40;2.20;;;34.20;40.80;;;;;;4920296;28;20050;-78
2022/08/14 09:20:23;;;;;;;2.70;2.47;;;34.70;40.60;;;;;;4951953;28;20035;-79
2022/08/14 09:22:49;;;;;;;2.42;2.10;;;35.10;40.10;;;;;;4931573;28;20026;-78
2022/08/14 09:25:16;;;;;;;2.03;1.93;;;35.30;39.10;;;;;;4926564;28;20128;-79
2022/08/14 09:27:42;;;;;;;4.78;2.20;;;35.60;38.30;;;;;;4954911;28;20043;-78
2022/08/14 09:30:09;;;;;;;2.20;2.00;;;35.80;37.90;;;;;;4946334;28;20026;-78
2022/08/14 09:32:56;;;;;;;2.25;2.00;;;35.90;37.40;;;;;;4937258;28;20114;-78
2022/08/14 09:35:44;;;;;;;3.40;2.30;;;36.00;36.30;;;;;;4959280;28;20030;-78
2022/08/14 09:38:27;;;;;;;2.30;2.10;;;36.10;35.60;;;;;;4944597;28;20073;-78
2022/08/14 09:41:37;;;;;;;2.20;2.00;;;36.20;36.20;;;;;;4957308;28;20046;-79
2022/08/14 09:44:21;;;;;;;2.10;2.00;;;36.30;35.50;;;;;;4927000;28;20126;-78
2022/08/14 09:46:57;;;;;;;2.40;2.20;;;36.40;36.00;;;;;;4930458;28;20067;-78
2022/08/14 09:49:31;;;;;;;3.28;2.00;;;36.40;34.80;;;;;;4965533;28;20500;-79
2022/08/14 09:52:15;;;;;;;2.30;2.00;;;36.40;34.30;;;;;;4944390;28;20031;-78
2022/08/14 09:54:46;;;;;;;2.22;1.95;;;36.40;34.20;;;;;;4944482;28;20523;-78
2022/08/14 09:57:32;;;;;;;3.28;2.30;;;36.40;34.50;;;;;;4959561;28;21061;-79
2022/08/14 10:00:13;;;;;;;2.05;1.90;;;36.40;33.80;;;;;;4937343;28;20716;-79
2022/08/14 10:02:49;;;;;;;2.58;2.00;;;36.40;33.80;;;;;;4941000;28;20027;-78
2022/08/14 10:05:25;;;;;;;2.30;2.10;;;36.30;34.00;;;;;;4952605;28;20547;-78
2022/08/14 10:07:51;;;;;;;2.50;2.30;;;36.30;33.90;;;;;;4951224;28;20193;-79
2022/08/14 10:10:38;;;;;;;1.95;1.80;;;36.20;34.10;;;;;;4950814;28;20067;-78
2022/08/14 10:13:07;;;;;;;2.38;2.17;;;36.30;32.80;;;;;;4958261;28;20053;-78
2022/08/14 10:15:37;;;;;;;2.17;2.05;;;36.40;33.80;;;;;;4930918;28;20416;-78
2022/08/14 10:18:06;;;;;;;2.13;2.00;;;36.60;33.60;;;;;;4956400;28;20532;-78
2022/08/14 10:20:41;;;;;;;2.15;2.00;;;36.90;33.90;;;;;;4944620;28;20030;-79
2022/08/14 10:23:10;;;;;;;2.20;2.00;;;37.30;32.90;;;;;;4938500;28;20031;-78
2022/08/14 10:25:43;;;;;;;2.45;2.10;;;37.70;32.70;;;;;;4957861;28;20093;-78
2022/08/14 10:28:09;;;;;;;3.35;2.30;;;38.00;31.90;;;;;;4942797;28;20073;-79
2022/08/14 10:30:36;;;;;;;2.23;2.00;;;38.30;32.10;;;;;;4915566;28;20049;-78
2022/08/14 10:33:02;;;;;;;2.92;1.85;;;38.40;31.40;;;;;;4949938;28;20519;-79
2022/08/14 10:35:39;;;;;;;1.80;1.70;;;38.60;30.70;;;;;;4947287;28;20027;-79
2022/08/14 10:38:05;;;;;;;2.08;1.98;;;38.70;29.50;;;;;;4944073;28;20034;-79
2022/08/14 10:40:31;;;;;;;2.10;2.00;;;38.70;29.60;;;;;;4965241;28;20102;-79
2022/08/14 10:42:57;;;;;;;1.70;1.60;;;38.60;29.20;;;;;;4947652;28;20247;-78
2022/08/14 10:45:32;;;;;;;1.80;1.70;;;38.50;29.20;;;;;;4938299;28;20026;-79
2022/08/14 10:47:57;;;;;;;2.15;1.58;;;38.30;28.80;;;;;;4931934;28;20461;-79
2022/08/14 10:50:40;;;;;;;2.33;1.50;;;38.20;28.80;;;;;;4954137;28;20106;-78
2022/08/14 10:53:05;;;;;;;2.55;1.60;;;38.00;28.30;;;;;;4951938;28;20053;-78
2022/08/14 10:55:38;;;;;;;1.93;1.80;;;37.70;28.60;;;;;;4960153;28;20053;-79
2022/08/14 10:58:10;;;;;;;1.98;1.80;;;37.60;28.60;;;;;;4958081;28;20042;-79
2022/08/14 11:00:38;;;;;;;1.90;1.80;;;37.50;28.50;;;;;;4932063;28;20257;-79
2022/08/14 11:03:08;;;;;;;2.28;2.08;;;37.50;28.60;;;;;;4924964;28;20318;-79
2022/08/14 11:05:40;;;;;;;1.90;1.80;;;37.60;28.50;;;;;;4939932;28;20066;-78
2022/08/14 11:08:07;;;;;;;1.80;1.70;;;37.60;28.50;;;;;;4953455;28;20015;-78
2022/08/14 11:10:55;;;;;;;1.80;1.70;;;37.80;29.00;;;;;;4950605;28;20026;-77
2022/08/14 11:13:23;;;;;;;1.80;1.70;;;38.00;28.20;;;;;;4953417;28;20028;-79
2022/08/14 11:15:50;;;;;;;1.88;1.77;;;38.30;28.70;;;;;;4947349;28;20098;-78
2022/08/14 11:18:18;;;;;;;2.08;1.90;;;38.60;28.70;;;;;;4936194;28;20042;-79
2022/08/14 11:21:13;;;;;;;2.20;2.03;;;39.00;28.20;;;;;;4935363;28;22799;-79
2022/08/14 11:23:39;;;;;;;2.22;2.03;;;39.40;27.80;;;;;;4939255;28;20770;-78
2022/08/14 11:26:06;;;;;;;2.05;1.85;;;39.70;28.00;;;;;;4955291;28;20062;-79
2022/08/14 11:28:37;;;;;;;2.43;1.67;;;39.90;27.60;;;;;;4936371;28;20061;-78
2022/08/14 11:31:07;;;;;;;2.15;1.92;;;40.30;27.40;;;;;;4945520;28;20027;-78
2022/08/14 11:33:35;;;;;;;2.33;2.10;;;40.50;27.10;;;;;;4945607;28;20415;-79
2022/08/14 11:36:04;;;;;;;1.83;1.70;;;40.70;27.00;;;;;;4944674;28;20035;-79
2022/08/14 11:38:43;;;;;;;3.88;2.13;;;41.00;26.70;;;;;;4946700;28;20027;-78
2022/08/14 11:41:11;;;;;;;2.20;2.10;;;41.20;26.30;;;;;;4960526;28;20118;-79
2022/08/14 11:43:46;;;;;;;2.33;2.10;;;41.50;26.50;;;;;;4929957;28;20352;-79
2022/08/14 11:46:14;;;;;;;2.40;2.20;;;41.80;25.40;;;;;;4965344;28;20293;-79
2022/08/14 11:48:52;;;;;;;2.00;1.90;;;42.00;25.50;;;;;;4927489;28;20089;-79
2022/08/14 11:51:24;;;;;;;2.78;2.58;;;42.20;24.30;;;;;;4951611;28;20058;-78
2022/08/14 11:53:59;;;;;;;2.33;2.23;;;42.30;24.30;;;;;;4942797;28;20038;-78
2022/08/14 11:56:36;;;;;;;2.67;2.47;;;42.50;24.60;;;;;;4955892;28;20025;-77
2022/08/14 11:59:05;;;;;;;2.20;2.10;;;42.70;24.30;;;;;;4947160;28;20054;-77
2022/08/14 12:01:30;;;;;;;2.65;2.45;;;42.80;24.50;;;;;;4940448;28;20024;-76
2022/08/14 12:04:12;;;;;;;2.53;2.43;;;43.10;24.70;;;;;;4939402;28;20031;-76
2022/08/14 12:06:53;;;;;;;2.80;2.60;;;43.30;23.80;;;;;;4944954;28;20038;-77
2022/08/14 12:09:34;;;;;;;3.08;2.78;;;43.60;23.70;;;;;;4939371;28;20054;-77
2022/08/14 12:12:11;;;;;;;3.10;2.90;;;43.80;23.80;;;;;;4950752;28;20034;-78
2022/08/14 12:14:52;;;;;;;2.55;2.35;;;43.90;23.60;;;;;;4941940;28;20125;-78
2022/08/14 12:17:18;;;;;;;2.30;2.10;;;43.90;22.50;;;;;;4949662;28;20498;-78
2022/08/14 12:19:51;;;;;;;2.55;2.38;;;44.00;23.40;;;;;;4939283;28;20011;-78
2022/08/14 12:22:17;;;;;;;2.60;2.40;;;44.00;22.50;;;;;;4947069;28;21077;-78
2022/08/14 12:24:43;;;;;;;2.90;2.70;;;44.20;22.70;;;;;;4939288;28;20644;-78
2022/08/14 12:27:11;;;;;;;2.38;2.22;;;44.20;22.20;;;;;;4951989;28;20495;-79
2022/08/14 12:29:41;;;;;;;2.67;2.47;;;44.00;21.70;;;;;;4957437;28;20480;-78
2022/08/14 12:32:07;;;;;;;2.13;2.03;;;43.80;21.80;;;;;;4943820;28;20582;-78
2022/08/14 12:34:35;;;;;;;2.75;2.55;;;43.70;22.00;;;;;;4943522;28;20023;-79
2022/08/14 12:37:06;;;;;;;2.60;2.00;;;43.60;21.90;;;;;;4950087;28;20137;-77
2022/08/14 12:39:33;;;;;;;2.20;2.00;;;43.60;21.60;;;;;;4930997;28;20050;-77
2022/08/14 12:42:05;;;;;;;2.10;2.00;;;43.60;22.00;;;;;;4966325;28;20031;-78
2022/08/14 12:44:34;;;;;;;2.38;2.00;;;43.60;22.00;;;;;;4949870;28;20037;-80
2022/08/14 12:47:15;;;;;;;2.67;2.47;;;43.70;21.80;;;;;;4967337;28;20034;-80
2022/08/14 12:49:54;;;;;;;2.40;2.20;;;43.70;21.50;;;;;;4936691;28;20150;-78
2022/08/14 12:52:40;;;;;;;2.72;2.53;;;43.70;21.50;;;;;;4936157;28;20492;-76
2022/08/14 12:55:09;;;;;;;3.45;2.17;;;43.80;21.50;;;;;;4944327;28;20034;-77
2022/08/14 12:57:40;;;;;;;2.40;2.10;;;43.80;21.60;;;;;;4953555;28;20530;-78
2022/08/14 13:00:17;;;;;;;2.92;2.72;;;43.90;21.40;;;;;;4942899;28;20239;-78
2022/08/14 13:02:45;;;;;;;2.27;1.90;;;43.90;21.20;;;;;;4945833;28;20411;-77
2022/08/14 13:05:13;;;;;;;2.20;2.10;;;44.00;21.40;;;;;;4945995;28;20153;-76
2022/08/14 13:07:40;;;;;;;2.78;2.17;;;44.00;21.20;;;;;;4933750;28;23127;-77
2022/08/14 13:10:09;;;;;;;1.90;1.73;;;44.00;21.30;;;;;;4943017;28;20023;-77
2022/08/14 13:12:37;;;;;;;2.15;2.00;;;43.90;20.70;;;;;;4958199;28;20149;-79